FDMS/MTS METAR and TAF weather

Enter ICAO airport designator
Station Type Date Time Source
FDMS METAR 2020/05/27 12:00 UTC NOAA

FDMS 271200Z 34010KT CAVOK 19/M04 Q1019 NOSIG


Station Type Date Time Source
FDMS Decoded METAR 2020/05/27 12:00 UTC NOAA

Manzini / Matsapa Airport, Swaziland (FDMS) 26-32S 031-18E
May 27, 2020 - 08:00 AM EDT / 2020.05.27 1200 UTC
Wind: from the NNW (340 degrees) at 12 MPH (10 KT):0
Visibility: greater than 7 mile(s):0
Temperature: 66 F (19 C)
Dew Point: 24 F (-4 C)
Relative Humidity: 20%
Pressure (altimeter): 30.09 in. Hg (1019 hPa)
ob: FDMS 271200Z 34010KT CAVOK 19/M04 Q1019 NOSIG
cycle: 12

Station Type Date Time Source
FDMS TAF 2020/03/05 06:00 UTC NOAA

TAF TAF FDMS 050400Z 0506/0518 06007KT CAVOK

Example: see airport list